createdAt,value
2023-01-30T00:03:03.512Z,5.40
2023-01-30T00:08:08.146Z,5.23
2023-01-30T00:13:11.569Z,5.34
2023-01-30T00:18:14.733Z,5.24
2023-01-30T00:23:19.294Z,5.22
2023-01-30T00:28:22.568Z,5.25
2023-01-30T00:33:27.360Z,5.18
2023-01-30T00:38:32.029Z,5.26
2023-01-30T00:43:52.470Z,5.16
2023-01-30T00:48:55.603Z,5.27
2023-01-30T00:54:00.139Z,5.15
2023-01-30T00:59:03.551Z,5.04
2023-01-30T01:04:08.886Z,5.07
2023-01-30T01:09:13.247Z,4.96
2023-01-30T01:14:16.394Z,4.90
2023-01-30T01:19:19.773Z,4.84
2023-01-30T01:24:24.311Z,4.80
2023-01-30T01:29:27.435Z,4.75
2023-01-30T01:34:30.557Z,4.78
2023-01-30T01:39:48.880Z,4.77
2023-01-30T01:45:17.289Z,5.05
2023-01-30T01:50:24.406Z,5.34
2023-01-30T01:55:30.911Z,5.54
2023-01-30T02:00:34.675Z,5.79
2023-01-30T02:05:42.828Z,5.80
2023-01-30T02:10:52.278Z,5.85
2023-01-30T02:15:57.239Z,5.97
2023-01-30T02:21:22.822Z,5.97
2023-01-30T02:26:54.192Z,5.73
2023-01-30T02:32:09.079Z,5.53
2023-01-30T02:37:25.203Z,5.35
2023-01-30T02:42:38.276Z,5.45
2023-01-30T02:47:49.649Z,5.52
2023-01-30T02:52:54.253Z,5.49
2023-01-30T02:57:57.399Z,5.49
2023-01-30T03:03:29.258Z,5.15
2023-01-30T03:08:41.813Z,5.07
2023-01-30T03:13:53.629Z,5.37
2023-01-30T03:18:58.464Z,5.46
2023-01-30T03:24:01.613Z,5.57
2023-01-30T03:29:05.806Z,5.75
2023-01-30T03:34:10.335Z,5.79
2023-01-30T03:39:13.942Z,5.92
2023-01-30T03:44:17.142Z,6.06
2023-01-30T03:49:21.858Z,6.12
2023-01-30T03:54:25.162Z,6.05
2023-01-30T03:59:28.314Z,6.02
2023-01-30T04:04:33.008Z,6.06
2023-01-30T04:09:36.176Z,6.03
2023-01-30T04:14:39.307Z,6.00
2023-01-30T04:19:44.065Z,5.94
2023-01-30T04:24:47.201Z,5.94
2023-01-30T04:29:50.584Z,5.90
2023-01-30T04:34:55.420Z,5.88
2023-01-30T04:39:58.739Z,5.84
2023-01-30T04:45:02.105Z,5.83
2023-01-30T04:50:07.904Z,5.78
2023-01-30T04:55:11.436Z,5.75
2023-01-30T05:00:15.495Z,5.77
2023-01-30T05:05:20.642Z,5.76
2023-01-30T05:10:24.048Z,5.77
2023-01-30T05:15:27.456Z,5.73
2023-01-30T05:20:32.262Z,5.74
2023-01-30T05:25:35.603Z,5.62
2023-01-30T05:30:39.011Z,5.55
2023-01-30T05:35:49.326Z,5.53
2023-01-30T05:41:01.387Z,5.51
2023-01-30T05:46:07.266Z,5.53
2023-01-30T05:51:19.308Z,5.45
2023-01-30T05:56:23.164Z,5.44
2023-01-30T06:01:27.194Z,5.38
2023-01-30T06:06:31.982Z,5.35
2023-01-30T06:11:35.593Z,5.35
2023-01-30T06:16:39.195Z,5.33
2023-01-30T06:21:44.018Z,5.25
2023-01-30T06:26:47.198Z,5.25
2023-01-30T06:31:50.359Z,5.21
2023-01-30T06:36:54.893Z,5.18
2023-01-30T06:41:57.992Z,5.23
2023-01-30T06:47:01.128Z,5.23
2023-01-30T06:52:06.004Z,5.22
2023-01-30T06:57:09.116Z,5.13
2023-01-30T07:02:14.564Z,5.15
2023-01-30T07:07:19.129Z,5.07
2023-01-30T07:12:22.342Z,5.07
2023-01-30T07:17:26.044Z,5.07
2023-01-30T07:22:30.587Z,4.95
2023-01-30T07:27:34.108Z,4.94
2023-01-30T07:32:37.259Z,4.90
2023-01-30T07:37:41.833Z,4.87
2023-01-30T07:42:45.169Z,4.88
2023-01-30T07:47:48.327Z,4.97
2023-01-30T07:52:53.335Z,4.90
2023-01-30T07:57:56.708Z,4.86
2023-01-30T08:02:59.866Z,4.83
2023-01-30T08:08:04.633Z,4.84
2023-01-30T08:13:07.786Z,4.84
2023-01-30T08:18:10.938Z,4.82
2023-01-30T08:23:15.469Z,4.85
2023-01-30T08:28:18.637Z,4.79
2023-01-30T08:33:22.487Z,4.79
2023-01-30T08:38:27.010Z,4.80
2023-01-30T08:43:30.183Z,4.93
2023-01-30T08:48:47.475Z,5.15
2023-01-30T08:53:53.633Z,5.31
2023-01-30T08:58:56.812Z,5.43
2023-01-30T09:03:59.969Z,5.66
2023-01-30T09:09:04.988Z,5.84
2023-01-30T09:14:08.206Z,5.94
2023-01-30T09:19:11.340Z,6.17
2023-01-30T09:24:15.998Z,6.25
2023-01-30T09:29:19.219Z,6.42
2023-01-30T09:34:27.501Z,6.50
2023-01-30T09:39:32.085Z,6.53
2023-01-30T09:44:53.427Z,6.55
2023-01-30T09:50:06.383Z,6.69
2023-01-30T09:55:19.503Z,6.80
2023-01-30T10:00:28.332Z,6.96
2023-01-30T10:05:38.395Z,7.11
2023-01-30T10:10:55.077Z,7.17
2023-01-30T10:16:12.376Z,7.17
2023-01-30T10:21:24.749Z,7.27
2023-01-30T10:26:31.437Z,7.36
2023-01-30T10:31:41.637Z,7.48
2023-01-30T10:36:53.014Z,7.41
2023-01-30T10:42:12.757Z,7.50
2023-01-30T10:47:46.350Z,7.59
2023-01-30T10:52:57.708Z,7.67
2023-01-30T10:58:15.526Z,7.81
2023-01-30T11:03:26.056Z,7.81
2023-01-30T11:08:31.167Z,7.99
2023-01-30T11:13:35.779Z,7.96
2023-01-30T11:24:18.475Z,8.17
2023-01-30T11:29:31.816Z,8.23
2023-01-30T11:34:35.012Z,8.35
2023-01-30T11:39:38.146Z,8.48
2023-01-30T11:44:43.561Z,8.67
2023-01-30T11:50:10.682Z,8.50
2023-01-30T11:55:18.646Z,8.79
2023-01-30T12:00:25.564Z,8.89
2023-01-30T12:05:34.688Z,8.95
2023-01-30T12:10:43.145Z,9.08
2023-01-30T12:15:50.516Z,9.24
2023-01-30T12:20:59.856Z,9.06
2023-01-30T12:26:11.539Z,9.09
2023-01-30T12:31:22.827Z,9.15
2023-01-30T12:36:35.413Z,9.39
2023-01-30T12:42:04.368Z,9.55
2023-01-30T12:47:32.347Z,9.68
2023-01-30T12:52:57.626Z,10.12
2023-01-30T12:58:04.434Z,10.44
2023-01-30T13:03:24.831Z,10.73
2023-01-30T13:08:51.432Z,11.44
2023-01-30T13:14:04.342Z,11.78
2023-01-30T13:19:19.257Z,12.27
2023-01-30T13:24:31.167Z,13.37
2023-01-30T13:29:38.920Z,13.39
2023-01-30T13:34:48.014Z,13.30
2023-01-30T13:39:54.664Z,12.77
2023-01-30T13:45:01.186Z,13.02
2023-01-30T13:50:24.346Z,13.88
2023-01-30T13:55:36.645Z,14.28
2023-01-30T14:00:39.907Z,14.88
2023-01-30T14:06:16.211Z,15.07
2023-01-30T14:11:48.378Z,14.76
2023-01-30T14:16:53.871Z,14.88
2023-01-30T14:22:00.102Z,14.74
2023-01-30T14:27:24.508Z,14.59
2023-01-30T14:32:52.579Z,15.13
2023-01-30T14:38:13.118Z,15.45
2023-01-30T14:43:55.232Z,15.06
2023-01-30T14:49:05.298Z,15.46
2023-01-30T14:54:27.532Z,15.49
2023-01-30T14:59:37.417Z,15.91
2023-01-30T15:04:45.259Z,16.01
2023-01-30T15:09:56.767Z,15.31
2023-01-30T15:15:13.239Z,15.37
2023-01-30T15:20:30.317Z,15.04
2023-01-30T15:25:48.331Z,14.71
2023-01-30T15:31:02.110Z,14.63
2023-01-30T15:36:20.407Z,14.16
2023-01-30T15:41:25.560Z,14.40
2023-01-30T15:46:38.009Z,14.42
2023-01-30T15:51:41.323Z,14.30
2023-01-30T15:56:49.730Z,13.99
2023-01-30T16:02:01.008Z,13.79
2023-01-30T16:07:16.207Z,13.57
2023-01-30T16:12:28.246Z,13.59
2023-01-30T16:17:33.145Z,13.44
2023-01-30T16:22:36.360Z,13.09
2023-01-30T16:27:41.366Z,13.42
2023-01-30T16:32:44.824Z,13.34
2023-01-30T16:37:48.070Z,13.17
2023-01-30T16:43:00.391Z,12.75
2023-01-30T16:48:25.669Z,12.50
2023-01-30T16:53:31.132Z,12.35
2023-01-30T16:58:38.129Z,12.16
2023-01-30T17:03:44.229Z,12.11
2023-01-30T17:08:50.799Z,11.93
2023-01-30T17:14:12.140Z,11.59
2023-01-30T17:19:16.018Z,11.48
2023-01-30T17:24:22.007Z,11.29
2023-01-30T17:29:41.837Z,11.12
2023-01-30T17:34:45.820Z,10.96
2023-01-30T17:39:49.249Z,10.82
2023-01-30T17:44:54.294Z,10.74
2023-01-30T17:49:57.528Z,10.59
2023-01-30T17:55:00.702Z,10.53
2023-01-30T18:00:06.083Z,10.45
2023-01-30T18:05:10.799Z,10.33
2023-01-30T18:10:17.700Z,10.22
2023-01-30T18:15:22.575Z,10.12
2023-01-30T18:20:25.932Z,10.04
2023-01-30T18:25:29.163Z,9.86
2023-01-30T18:30:33.866Z,9.61
2023-01-30T18:35:39.047Z,9.39
2023-01-30T18:40:42.050Z,9.20
2023-01-30T18:45:46.740Z,9.09
2023-01-30T18:50:50.086Z,8.88
2023-01-30T18:55:53.325Z,8.71
2023-01-30T19:00:58.378Z,8.62
2023-01-30T19:06:03.207Z,8.63
2023-01-30T19:11:27.327Z,8.65
2023-01-30T19:16:33.690Z,8.62
2023-01-30T19:21:37.547Z,8.62
2023-01-30T19:26:41.437Z,8.41
2023-01-30T19:31:47.397Z,8.30
2023-01-30T19:36:50.811Z,8.09
2023-01-30T19:41:54.101Z,7.81
2023-01-30T19:46:58.736Z,7.74
2023-01-30T19:52:02.853Z,7.75
2023-01-30T19:57:06.097Z,7.67
2023-01-30T20:02:14.447Z,7.55
2023-01-30T20:07:17.669Z,7.55
2023-01-30T20:12:22.107Z,7.43
2023-01-30T20:17:26.914Z,7.32
2023-01-30T20:22:30.215Z,7.25
2023-01-30T20:27:34.182Z,7.15
2023-01-30T20:32:40.621Z,6.99
2023-01-30T20:37:43.885Z,6.97
2023-01-30T20:42:48.929Z,6.85
2023-01-30T20:47:53.622Z,6.67
2023-01-30T20:52:56.845Z,6.59
2023-01-30T20:58:00.147Z,6.55
2023-01-30T21:03:04.807Z,6.52
2023-01-30T21:08:08.031Z,6.41
2023-01-30T21:13:11.260Z,6.25
2023-01-30T21:18:15.973Z,6.13
2023-01-30T21:23:19.203Z,6.11
2023-01-30T21:28:22.620Z,6.09
2023-01-30T21:33:27.297Z,6.10
2023-01-30T21:38:48.311Z,6.21
2023-01-30T21:43:51.552Z,6.08
2023-01-30T21:48:56.645Z,6.11
2023-01-30T21:54:02.213Z,6.16
2023-01-30T21:59:06.707Z,5.98
2023-01-30T22:04:15.066Z,5.92
2023-01-30T22:09:18.279Z,5.94
2023-01-30T22:14:21.667Z,5.95
2023-01-30T22:19:26.311Z,5.97
2023-01-30T22:24:29.716Z,5.99
2023-01-30T22:29:32.959Z,5.96
2023-01-30T22:34:38.106Z,6.02
2023-01-30T22:39:41.621Z,5.97
2023-01-30T22:44:44.878Z,6.02
2023-01-30T22:49:49.483Z,5.98
2023-01-30T22:54:52.696Z,5.85
2023-01-30T22:59:55.929Z,5.89
2023-01-30T23:05:00.551Z,5.76
2023-01-30T23:10:03.846Z,5.77
2023-01-30T23:15:08.280Z,5.87
2023-01-30T23:20:13.915Z,5.89
2023-01-30T23:25:17.665Z,5.75
2023-01-30T23:30:21.316Z,5.78
2023-01-30T23:35:25.979Z,5.74
2023-01-30T23:40:29.218Z,5.82
2023-01-30T23:45:32.519Z,5.89
2023-01-30T23:50:38.710Z,5.92
2023-01-30T23:55:51.020Z,5.81
